createdAt,value
2023-01-19T00:00:35.113Z,20.85
2023-01-19T00:03:04.262Z,13.43
2023-01-19T00:05:31.184Z,19.02
2023-01-19T00:08:14.731Z,11.55
2023-01-19T00:10:44.116Z,10.85
2023-01-19T00:13:11.006Z,10.93
2023-01-19T00:15:37.884Z,16.63
2023-01-19T00:18:04.664Z,15.35
2023-01-19T00:20:32.754Z,12.30
2023-01-19T00:22:59.694Z,11.80
2023-01-19T00:25:26.798Z,16.13
2023-01-19T00:27:53.518Z,10.50
2023-01-19T00:30:20.317Z,12.20
2023-01-19T00:32:47.048Z,13.77
2023-01-19T00:35:13.795Z,14.80
2023-01-19T00:37:40.430Z,10.75
2023-01-19T00:40:07.814Z,14.45
2023-01-19T00:42:40.255Z,13.02
2023-01-19T00:45:18.949Z,12.63
2023-01-19T00:47:47.125Z,11.52
2023-01-19T00:50:16.716Z,14.43
2023-01-19T00:52:44.397Z,13.18
2023-01-19T00:55:13.602Z,13.45
2023-01-19T00:57:41.134Z,11.77
2023-01-19T01:00:15.100Z,10.07
2023-01-19T01:02:43.865Z,10.73
2023-01-19T01:05:12.134Z,13.90
2023-01-19T01:07:44.589Z,10.65
2023-01-19T01:10:18.854Z,9.98
2023-01-19T01:12:57.540Z,17.10
2023-01-19T01:15:27.377Z,15.98
2023-01-19T01:17:54.992Z,17.23
2023-01-19T01:20:27.944Z,12.20
2023-01-19T01:22:55.426Z,10.00
2023-01-19T01:25:24.602Z,14.07
2023-01-19T01:27:52.283Z,11.02
2023-01-19T01:30:19.531Z,14.45
2023-01-19T01:32:46.195Z,10.60
2023-01-19T01:35:13.667Z,11.90
2023-01-19T01:37:40.872Z,8.63
2023-01-19T01:40:10.334Z,12.77
2023-01-19T01:42:37.099Z,14.55
2023-01-19T01:45:26.321Z,7.47
2023-01-19T01:47:57.336Z,11.75
2023-01-19T01:50:27.670Z,8.40
2023-01-19T01:53:09.629Z,9.02
2023-01-19T01:55:41.845Z,10.25
2023-01-19T01:58:10.365Z,11.60
2023-01-19T02:00:57.826Z,6.85
2023-01-19T02:03:26.485Z,12.73
2023-01-19T02:05:57.565Z,8.75
2023-01-19T02:09:02.267Z,10.95
2023-01-19T02:11:49.050Z,6.00
2023-01-19T02:14:15.795Z,14.95
2023-01-19T02:16:42.605Z,9.57
2023-01-19T02:19:14.286Z,6.50
2023-01-19T02:22:01.988Z,6.20
2023-01-19T02:24:29.362Z,11.63
2023-01-19T02:26:56.769Z,5.38
2023-01-19T02:29:25.816Z,8.30
2023-01-19T02:31:53.889Z,6.90
2023-01-19T02:34:22.619Z,6.30
2023-01-19T02:37:01.984Z,6.78
2023-01-19T02:39:34.915Z,9.75
2023-01-19T02:42:22.398Z,12.30
2023-01-19T02:44:52.223Z,5.95
2023-01-19T02:47:19.652Z,8.32
2023-01-19T02:49:58.031Z,11.32
2023-01-19T02:52:25.702Z,7.57
2023-01-19T02:55:11.005Z,9.40
2023-01-19T02:57:47.812Z,11.40
2023-01-19T03:00:14.484Z,5.53
2023-01-19T03:02:44.012Z,12.10
2023-01-19T03:05:29.376Z,6.32
2023-01-19T03:08:34.503Z,5.13
2023-01-19T03:11:11.126Z,6.68
2023-01-19T03:13:42.690Z,11.23
2023-01-19T03:16:16.442Z,10.25
2023-01-19T03:18:48.017Z,11.15
2023-01-19T03:21:19.573Z,10.27
2023-01-19T03:23:47.791Z,11.73
2023-01-19T03:26:18.907Z,10.85
2023-01-19T03:28:47.432Z,7.05
2023-01-19T03:31:19.185Z,9.77
2023-01-19T03:33:51.520Z,8.70
2023-01-19T03:36:40.620Z,14.75
2023-01-19T03:39:09.716Z,5.88
2023-01-19T03:41:38.714Z,8.10
2023-01-19T03:44:07.320Z,9.05
2023-01-19T03:46:34.561Z,5.53
2023-01-19T03:49:01.349Z,5.18
2023-01-19T03:51:28.215Z,6.07
2023-01-19T03:53:54.957Z,7.28
2023-01-19T03:56:25.876Z,7.43
2023-01-19T03:58:52.813Z,5.85
2023-01-19T04:01:23.300Z,6.35
2023-01-19T04:03:51.299Z,5.60
2023-01-19T04:06:18.801Z,9.57
2023-01-19T04:08:47.216Z,4.63
2023-01-19T04:11:13.890Z,9.40
2023-01-19T04:13:40.589Z,6.35
2023-01-19T04:16:07.514Z,18.08
2023-01-19T04:18:34.891Z,9.20
2023-01-19T04:21:06.941Z,6.50
2023-01-19T04:23:34.248Z,10.95
2023-01-19T04:26:06.648Z,28.45
2023-01-19T04:28:34.912Z,12.10
2023-01-19T04:31:01.695Z,5.72
2023-01-19T04:33:28.782Z,7.88
2023-01-19T04:35:56.149Z,16.20
2023-01-19T04:38:24.397Z,6.72
2023-01-19T04:40:52.820Z,10.70
2023-01-19T04:43:20.673Z,5.70
2023-01-19T04:45:47.937Z,7.10
2023-01-19T04:48:15.640Z,5.78
2023-01-19T04:50:42.393Z,4.68
2023-01-19T04:53:09.630Z,6.55
2023-01-19T04:55:38.193Z,5.65
2023-01-19T04:58:04.988Z,5.53
2023-01-19T05:00:31.767Z,9.85
2023-01-19T05:02:58.568Z,5.75
2023-01-19T05:05:26.891Z,12.38
2023-01-19T05:07:53.742Z,7.80
2023-01-19T05:10:20.644Z,5.53
2023-01-19T05:12:47.344Z,5.18
2023-01-19T05:15:14.001Z,7.38
2023-01-19T05:17:40.724Z,7.63
2023-01-19T05:20:09.722Z,5.00
2023-01-19T05:22:36.437Z,5.93
2023-01-19T05:25:03.183Z,6.10
2023-01-19T05:27:29.859Z,8.02
2023-01-19T05:29:56.579Z,6.15
2023-01-19T05:32:23.248Z,5.15
2023-01-19T05:34:49.919Z,7.47
2023-01-19T05:37:16.658Z,9.05
2023-01-19T05:39:43.313Z,5.63
2023-01-19T05:42:10.163Z,5.50
2023-01-19T05:44:36.834Z,6.30
2023-01-19T05:47:03.469Z,6.25
2023-01-19T05:49:30.472Z,6.38
2023-01-19T05:51:57.109Z,6.00
2023-01-19T05:54:23.794Z,7.43
2023-01-19T05:56:50.479Z,22.55
2023-01-19T05:59:24.007Z,7.63
2023-01-19T06:01:51.902Z,9.32
2023-01-19T06:04:19.893Z,7.50
2023-01-19T06:06:50.081Z,11.95
2023-01-19T06:09:17.366Z,10.88
2023-01-19T06:11:45.012Z,9.90
2023-01-19T06:14:12.388Z,9.95
2023-01-19T06:16:39.184Z,16.73
2023-01-19T06:19:06.544Z,12.07
2023-01-19T06:21:34.360Z,7.78
2023-01-19T06:24:01.099Z,12.38
2023-01-19T06:26:27.820Z,10.70
2023-01-19T06:28:54.515Z,9.13
2023-01-19T06:31:21.530Z,9.63
2023-01-19T06:33:48.245Z,12.68
2023-01-19T06:36:14.939Z,7.85
2023-01-19T06:38:41.653Z,15.25
2023-01-19T06:41:08.428Z,6.80
2023-01-19T06:43:35.200Z,7.30
2023-01-19T06:46:02.352Z,17.33
2023-01-19T06:48:29.151Z,9.23
2023-01-19T06:50:58.464Z,10.55
2023-01-19T06:53:27.708Z,9.10
2023-01-19T06:55:57.949Z,10.73
2023-01-19T06:58:25.216Z,10.18
2023-01-19T07:00:52.255Z,9.75
2023-01-19T07:03:23.339Z,9.70
2023-01-19T07:05:53.787Z,8.75
2023-01-19T07:08:20.957Z,10.02
2023-01-19T07:11:22.391Z,10.38
2023-01-19T07:13:36.275Z,10.75
2023-01-19T07:16:11.810Z,11.77
2023-01-19T07:18:40.151Z,11.32
2023-01-19T07:21:07.707Z,13.13
2023-01-19T07:23:34.941Z,21.10
2023-01-19T07:26:02.074Z,13.25
2023-01-19T07:28:29.843Z,9.95
2023-01-19T07:30:56.720Z,16.17
2023-01-19T07:33:24.871Z,10.52
2023-01-19T07:35:52.607Z,9.48
2023-01-19T07:38:19.708Z,9.45
2023-01-19T07:40:47.105Z,16.58
2023-01-19T07:43:14.413Z,11.45
2023-01-19T07:45:41.296Z,13.27
2023-01-19T07:48:07.990Z,10.85
2023-01-19T07:50:34.879Z,11.20
2023-01-19T07:53:06.501Z,17.63
2023-01-19T07:55:33.171Z,9.60
2023-01-19T07:57:59.898Z,12.95
2023-01-19T08:00:26.826Z,15.55
2023-01-19T08:02:58.642Z,12.65
2023-01-19T08:05:25.452Z,10.95
2023-01-19T08:07:54.162Z,10.48
2023-01-19T08:10:22.903Z,13.63
2023-01-19T08:12:49.558Z,9.85
2023-01-19T08:15:16.359Z,8.43
2023-01-19T08:17:42.992Z,6.47
2023-01-19T08:20:11.184Z,12.20
2023-01-19T08:22:38.114Z,14.60
2023-01-19T08:25:05.132Z,4.85
2023-01-19T08:27:32.035Z,13.57
2023-01-19T08:29:59.132Z,34.67
2023-01-19T08:32:25.925Z,26.38
2023-01-19T08:34:52.594Z,25.58
2023-01-19T08:37:19.287Z,9.10
2023-01-19T08:39:46.029Z,10.43
2023-01-19T08:42:12.703Z,10.70
2023-01-19T08:44:46.680Z,9.73
2023-01-19T08:47:20.029Z,10.90
2023-01-19T08:49:46.683Z,8.00
2023-01-19T08:52:13.317Z,11.52
2023-01-19T08:54:39.913Z,10.85
2023-01-19T08:57:06.546Z,12.98
2023-01-19T08:59:33.168Z,11.63
2023-01-19T09:02:00.090Z,11.13
2023-01-19T09:04:26.878Z,9.50
2023-01-19T09:06:53.555Z,9.95
2023-01-19T09:09:20.141Z,10.38
2023-01-19T09:11:46.796Z,7.72
2023-01-19T09:14:13.602Z,8.27
2023-01-19T09:16:40.359Z,7.03
2023-01-19T09:19:08.704Z,8.40
2023-01-19T09:21:36.314Z,8.93
2023-01-19T09:24:03.051Z,12.63
2023-01-19T09:26:31.636Z,7.93
2023-01-19T09:29:00.232Z,7.43
2023-01-19T09:31:27.057Z,10.60
2023-01-19T09:33:53.823Z,10.80
2023-01-19T09:36:20.519Z,10.30
2023-01-19T09:38:47.258Z,6.85
2023-01-19T09:41:22.043Z,8.57
2023-01-19T09:43:57.785Z,10.00
2023-01-19T09:46:41.389Z,11.18
2023-01-19T09:49:26.492Z,6.68
2023-01-19T09:51:53.318Z,6.70
2023-01-19T09:54:45.323Z,6.13
2023-01-19T09:57:12.224Z,7.90
2023-01-19T09:59:39.141Z,8.95
2023-01-19T10:02:20.651Z,9.45
2023-01-19T10:05:26.019Z,5.72
2023-01-19T10:08:08.305Z,7.53
2023-01-19T10:10:37.441Z,8.60
2023-01-19T10:13:25.717Z,6.85
2023-01-19T10:15:58.548Z,6.18
2023-01-19T10:18:35.748Z,7.18
2023-01-19T10:21:10.537Z,9.07
2023-01-19T10:23:52.192Z,6.68
2023-01-19T10:26:36.315Z,14.73
2023-01-19T10:29:11.953Z,14.43
2023-01-19T10:31:41.169Z,8.60
2023-01-19T10:34:20.438Z,14.02
2023-01-19T10:36:50.496Z,11.48
2023-01-19T10:39:18.932Z,10.32
2023-01-19T10:41:53.460Z,7.53
2023-01-19T10:44:29.224Z,7.40
2023-01-19T10:46:58.815Z,6.55
2023-01-19T10:49:34.345Z,7.15
2023-01-19T10:52:01.866Z,6.40
2023-01-19T10:54:30.512Z,7.65
2023-01-19T10:56:59.331Z,11.63
2023-01-19T10:59:38.394Z,10.48
2023-01-19T11:02:20.582Z,12.82
2023-01-19T11:04:51.266Z,12.93
2023-01-19T11:07:28.750Z,13.27
2023-01-19T11:10:17.238Z,10.90
2023-01-19T11:12:52.943Z,8.23
2023-01-19T11:15:30.550Z,8.75
2023-01-19T11:17:57.459Z,11.60
2023-01-19T11:20:29.214Z,11.65
2023-01-19T11:23:06.278Z,9.68
2023-01-19T11:25:34.918Z,13.10
2023-01-19T11:28:02.862Z,25.42
2023-01-19T11:30:30.512Z,12.27
2023-01-19T11:32:57.402Z,8.70
2023-01-19T11:35:33.967Z,8.98
2023-01-19T11:38:06.707Z,9.10
2023-01-19T11:40:35.293Z,9.68
2023-01-19T11:43:02.251Z,10.98
2023-01-19T11:45:31.642Z,10.02
2023-01-19T11:48:03.140Z,10.90
2023-01-19T11:50:32.942Z,9.40
2023-01-19T11:53:16.652Z,9.45
2023-01-19T11:55:55.446Z,9.88
2023-01-19T11:58:22.891Z,8.45
2023-01-19T12:00:55.114Z,6.10
2023-01-19T12:03:32.855Z,4.35
2023-01-19T12:06:06.727Z,4.53
2023-01-19T12:08:41.807Z,11.25
2023-01-19T12:11:13.325Z,6.85
2023-01-19T12:13:41.627Z,7.13
2023-01-19T12:16:13.675Z,13.90
2023-01-19T12:18:44.571Z,6.95
2023-01-19T12:21:11.465Z,8.55
2023-01-19T12:23:48.455Z,9.25
2023-01-19T12:26:24.114Z,7.40
2023-01-19T12:28:52.942Z,9.98
2023-01-19T12:31:21.637Z,7.38
2023-01-19T12:33:49.337Z,10.32
2023-01-19T12:36:35.341Z,13.40
2023-01-19T12:39:04.022Z,7.38
2023-01-19T12:41:30.642Z,10.75
2023-01-19T12:44:12.429Z,9.20
2023-01-19T12:46:54.915Z,12.80
2023-01-19T12:52:26.595Z,8.05
2023-01-19T12:55:14.521Z,7.82
2023-01-19T12:57:53.736Z,7.07
2023-01-19T13:00:23.251Z,14.45
2023-01-19T13:02:55.468Z,9.77
2023-01-19T13:05:32.892Z,12.02
2023-01-19T13:08:03.262Z,12.35
2023-01-19T13:11:10.402Z,9.43
2023-01-19T13:13:39.883Z,12.50
2023-01-19T13:16:18.751Z,11.20
2023-01-19T13:19:07.558Z,10.98
2023-01-19T13:21:39.556Z,10.43
2023-01-19T13:24:11.401Z,6.13
2023-01-19T13:26:53.339Z,11.07
2023-01-19T13:29:33.859Z,10.63
2023-01-19T13:32:04.743Z,12.85
2023-01-19T13:34:38.843Z,11.40
2023-01-19T13:37:06.537Z,9.65
2023-01-19T13:39:40.903Z,9.98
2023-01-19T13:42:16.361Z,12.55
2023-01-19T13:44:54.996Z,12.07
2023-01-19T13:47:47.920Z,13.60
2023-01-19T13:50:29.781Z,13.98
2023-01-19T13:52:58.810Z,15.70
2023-01-19T13:55:30.425Z,13.15
2023-01-19T13:57:57.883Z,9.93
2023-01-19T14:00:29.873Z,11.18
2023-01-19T14:03:00.525Z,11.02
2023-01-19T14:05:32.161Z,12.82
2023-01-19T14:08:13.831Z,11.10
2023-01-19T14:11:02.260Z,16.70
2023-01-19T14:13:35.020Z,18.02
2023-01-19T14:16:07.207Z,15.25
2023-01-19T14:18:35.291Z,12.23
2023-01-19T14:21:07.571Z,13.57
2023-01-19T14:26:37.836Z,10.32
2023-01-19T14:29:10.368Z,15.82
2023-01-19T14:31:47.534Z,20.90
2023-01-19T14:34:32.119Z,16.27
2023-01-19T14:37:00.355Z,14.05
2023-01-19T14:39:36.190Z,9.10
2023-01-19T14:42:06.473Z,10.55
2023-01-19T14:44:38.359Z,12.07
2023-01-19T14:47:06.802Z,15.60
2023-01-19T14:49:37.262Z,12.82
2023-01-19T14:52:16.426Z,15.65
2023-01-19T14:54:45.571Z,10.20
2023-01-19T14:57:13.819Z,12.40
2023-01-19T14:59:41.146Z,15.88
2023-01-19T15:02:08.944Z,15.00
2023-01-19T15:04:35.658Z,14.43
2023-01-19T15:07:02.670Z,17.73
2023-01-19T15:09:29.401Z,14.85
2023-01-19T15:11:56.284Z,14.75
2023-01-19T15:14:22.949Z,11.88
2023-01-19T15:16:50.130Z,10.57
2023-01-19T15:19:17.832Z,13.05
2023-01-19T15:21:46.363Z,11.20
2023-01-19T15:24:14.266Z,9.98
2023-01-19T15:26:43.213Z,12.90
2023-01-19T15:29:18.230Z,10.07
2023-01-19T15:31:44.947Z,12.30
2023-01-19T15:34:14.791Z,10.48
2023-01-19T15:36:42.572Z,13.95
2023-01-19T15:39:10.769Z,8.73
2023-01-19T15:41:39.551Z,13.85
2023-01-19T15:44:07.106Z,15.40
2023-01-19T15:46:34.680Z,11.20
2023-01-19T15:49:01.436Z,13.43
2023-01-19T15:51:28.459Z,14.63
2023-01-19T15:53:55.422Z,9.75
2023-01-19T15:56:26.516Z,8.75
2023-01-19T15:58:54.346Z,8.52
2023-01-19T16:01:31.363Z,7.68
2023-01-19T16:04:01.027Z,6.47
2023-01-19T16:06:28.249Z,14.88
2023-01-19T16:08:59.616Z,14.93
2023-01-19T16:11:29.671Z,14.87
2023-01-19T16:13:56.347Z,26.23
2023-01-19T16:16:24.905Z,18.98
2023-01-19T16:18:52.108Z,23.50
2023-01-19T16:21:18.855Z,12.25
2023-01-19T16:23:45.618Z,13.13
2023-01-19T16:26:42.305Z,15.80
2023-01-19T16:29:10.613Z,24.90
2023-01-19T16:31:38.770Z,26.92
2023-01-19T16:34:05.535Z,21.92
2023-01-19T16:36:34.062Z,28.25
2023-01-19T16:39:04.040Z,28.95
2023-01-19T16:41:30.931Z,25.35
2023-01-19T16:43:58.614Z,21.83
2023-01-19T16:46:27.984Z,26.25
2023-01-19T16:48:59.595Z,20.42
2023-01-19T16:51:26.259Z,16.40
2023-01-19T16:53:52.953Z,20.13
2023-01-19T16:56:19.621Z,17.33
2023-01-19T16:58:46.547Z,20.35
2023-01-19T17:01:14.844Z,20.08
2023-01-19T17:03:42.454Z,19.02
2023-01-19T17:06:11.879Z,21.27
2023-01-19T17:08:39.009Z,21.27
2023-01-19T17:11:23.724Z,18.30
2023-01-19T17:13:56.535Z,15.25
2023-01-19T17:16:24.678Z,13.43
2023-01-19T17:18:51.687Z,12.90
2023-01-19T17:21:19.923Z,8.95
2023-01-19T17:23:48.744Z,12.40
2023-01-19T17:26:16.471Z,14.60
2023-01-19T17:28:43.921Z,19.67
2023-01-19T17:31:13.114Z,13.77
2023-01-19T17:33:40.433Z,17.40
2023-01-19T17:36:11.320Z,26.08
2023-01-19T17:38:38.008Z,34.72
2023-01-19T17:41:20.202Z,44.15
2023-01-19T17:43:47.574Z,44.40
2023-01-19T17:46:14.449Z,41.30
2023-01-19T17:48:41.121Z,31.05
2023-01-19T17:51:10.107Z,32.63
2023-01-19T17:53:38.399Z,33.08
2023-01-19T17:56:06.351Z,26.27
2023-01-19T17:58:33.161Z,28.95
2023-01-19T18:01:12.312Z,26.48
2023-01-19T18:03:39.457Z,26.08
2023-01-19T18:06:06.807Z,27.30
2023-01-19T18:08:36.229Z,42.55
2023-01-19T18:11:03.342Z,76.25
2023-01-19T18:13:30.126Z,111.93
2023-01-19T18:16:01.768Z,89.45
2023-01-19T18:18:29.130Z,30.85
2023-01-19T18:21:02.236Z,23.73
2023-01-19T18:23:29.188Z,15.32
2023-01-19T18:26:06.841Z,11.57
2023-01-19T18:28:34.270Z,10.52
2023-01-19T18:31:01.274Z,15.55
2023-01-19T18:33:28.823Z,16.05
2023-01-19T18:35:55.514Z,17.67
2023-01-19T18:38:22.384Z,18.88
2023-01-19T18:40:49.113Z,15.05
2023-01-19T18:43:15.795Z,15.68
2023-01-19T18:45:42.521Z,17.65
2023-01-19T18:48:09.659Z,24.55
2023-01-19T18:50:38.045Z,22.98
2023-01-19T18:53:05.382Z,24.60
2023-01-19T18:55:32.072Z,19.73
2023-01-19T18:57:58.771Z,17.60
2023-01-19T19:00:25.507Z,14.45
2023-01-19T19:02:53.196Z,13.07
2023-01-19T19:05:19.892Z,14.35
2023-01-19T19:07:46.685Z,11.30
2023-01-19T19:10:13.792Z,17.05
2023-01-19T19:12:40.639Z,12.77
2023-01-19T19:15:08.079Z,11.95
2023-01-19T19:17:35.728Z,12.52
2023-01-19T19:20:02.810Z,10.63
2023-01-19T19:22:29.504Z,18.40
2023-01-19T19:24:56.211Z,18.60
2023-01-19T19:27:22.827Z,12.80
2023-01-19T19:29:49.479Z,12.52
2023-01-19T19:32:20.207Z,18.90
2023-01-19T19:34:52.803Z,16.92
2023-01-19T19:37:22.427Z,23.55
2023-01-19T19:39:49.166Z,19.15
2023-01-19T19:42:16.160Z,14.70
2023-01-19T19:44:42.805Z,11.05
2023-01-19T19:47:09.451Z,9.57
2023-01-19T19:49:36.102Z,10.05
2023-01-19T19:52:02.833Z,8.77
2023-01-19T19:54:29.541Z,10.20
2023-01-19T19:56:56.191Z,8.48
2023-01-19T19:59:22.878Z,6.70
2023-01-19T20:01:51.020Z,7.68
2023-01-19T20:04:22.712Z,7.95
2023-01-19T20:06:49.671Z,12.80
2023-01-19T20:09:17.088Z,6.63
2023-01-19T20:11:46.535Z,8.80
2023-01-19T20:14:14.103Z,11.13
2023-01-19T20:16:40.915Z,10.85
2023-01-19T20:19:08.279Z,11.23
2023-01-19T20:21:37.027Z,8.30
2023-01-19T20:24:07.443Z,10.15
2023-01-19T20:26:35.677Z,8.15
2023-01-19T20:29:06.758Z,8.60
2023-01-19T20:31:36.230Z,15.60
2023-01-19T20:34:05.791Z,9.35
2023-01-19T20:36:32.984Z,11.93
2023-01-19T20:39:00.312Z,7.55
2023-01-19T20:41:27.535Z,8.40
2023-01-19T20:43:54.399Z,8.50
2023-01-19T20:46:21.047Z,10.77
2023-01-19T20:48:52.717Z,15.45
2023-01-19T20:51:20.343Z,16.00
2023-01-19T20:53:47.899Z,12.68
2023-01-19T20:56:15.589Z,11.70
2023-01-19T20:58:42.589Z,9.82
2023-01-19T21:01:18.720Z,9.35
2023-01-19T21:03:45.676Z,10.38
2023-01-19T21:06:12.911Z,11.52
2023-01-19T21:08:40.071Z,8.98
2023-01-19T21:11:07.011Z,9.35
2023-01-19T21:13:34.808Z,10.95
2023-01-19T21:16:02.009Z,7.15
2023-01-19T21:18:28.792Z,7.35
2023-01-19T21:20:57.443Z,7.20
2023-01-19T21:23:25.921Z,6.15
2023-01-19T21:25:58.542Z,8.02
2023-01-19T21:28:26.712Z,8.45
2023-01-19T21:30:54.951Z,7.13
2023-01-19T21:33:22.997Z,6.55
2023-01-19T21:35:59.109Z,6.97
2023-01-19T21:38:27.519Z,6.82
2023-01-19T21:40:55.430Z,5.93
2023-01-19T21:43:22.533Z,8.20
2023-01-19T21:45:49.291Z,12.38
2023-01-19T21:48:17.129Z,15.70
2023-01-19T21:50:44.000Z,19.25
2023-01-19T21:53:11.468Z,20.30
2023-01-19T21:55:42.737Z,23.00
2023-01-19T21:58:09.411Z,20.02
2023-01-19T22:00:36.079Z,14.52
2023-01-19T22:03:04.432Z,11.70
2023-01-19T22:05:36.749Z,14.10
2023-01-19T22:10:30.910Z,23.48
2023-01-19T22:12:57.537Z,20.20
2023-01-19T22:15:24.196Z,18.75
2023-01-19T22:17:50.817Z,19.75
2023-01-19T22:20:17.587Z,14.55
2023-01-19T22:22:44.277Z,12.90
2023-01-19T22:25:11.250Z,22.25
2023-01-19T22:27:38.706Z,17.17
2023-01-19T22:30:06.215Z,15.05
2023-01-19T22:32:32.899Z,13.43
2023-01-19T22:34:59.582Z,12.27
2023-01-19T22:37:26.273Z,11.30
2023-01-19T22:51:46.549Z,11.85
2023-01-19T22:54:13.755Z,14.70
2023-01-19T22:56:41.795Z,16.38
2023-01-19T22:59:08.871Z,17.15
2023-01-19T23:01:38.960Z,17.65
2023-01-19T23:04:06.897Z,16.40
2023-01-19T23:06:35.837Z,17.48
2023-01-19T23:09:06.666Z,12.80
2023-01-19T23:11:36.569Z,9.70
2023-01-19T23:14:04.927Z,11.93
2023-01-19T23:16:31.571Z,12.82
2023-01-19T23:18:58.804Z,12.70
2023-01-19T23:21:28.041Z,11.00
2023-01-19T23:23:56.504Z,11.32
2023-01-19T23:26:24.510Z,8.25
2023-01-19T23:28:56.568Z,8.93
2023-01-19T23:33:53.757Z,8.40
2023-01-19T23:36:21.669Z,8.15
2023-01-19T23:38:56.291Z,6.93
2023-01-19T23:41:23.772Z,10.40
2023-01-19T23:43:51.347Z,8.40
2023-01-19T23:46:19.491Z,10.48
2023-01-19T23:48:46.227Z,10.07
2023-01-19T23:51:18.846Z,8.43
2023-01-19T23:53:46.082Z,6.82
2023-01-19T23:56:19.429Z,7.80
2023-01-19T23:58:48.076Z,43.90
